sensor_id;sensor_type;location;lat;lon;timestamp;temperature;humidity
71173;DHT22;58875;51.996;4.504;2022-12-29T00:02:23;11.51;84.26
71173;DHT22;58875;51.996;4.504;2022-12-29T00:04:49;11.48;84.41
71173;DHT22;58875;51.996;4.504;2022-12-29T00:07:15;11.55;84.32
71173;DHT22;58875;51.996;4.504;2022-12-29T00:09:41;11.59;84.07
71173;DHT22;58875;51.996;4.504;2022-12-29T00:12:06;11.62;83.87
71173;DHT22;58875;51.996;4.504;2022-12-29T00:14:32;11.62;83.89
71173;DHT22;58875;51.996;4.504;2022-12-29T00:17:16;11.64;83.64
71173;DHT22;58875;51.996;4.504;2022-12-29T00:19:41;11.71;83.38
71173;DHT22;58875;51.996;4.504;2022-12-29T00:22:26;11.71;83.26
71173;DHT22;58875;51.996;4.504;2022-12-29T00:25:11;11.68;83.11
71173;DHT22;58875;51.996;4.504;2022-12-29T00:27:57;11.68;83.07
71173;DHT22;58875;51.996;4.504;2022-12-29T00:30:41;11.69;82.94
71173;DHT22;58875;51.996;4.504;2022-12-29T00:33:29;11.69;83.14
71173;DHT22;58875;51.996;4.504;2022-12-29T00:36:31;11.62;83.48
71173;DHT22;58875;51.996;4.504;2022-12-29T00:39:03;11.65;83.52
71173;DHT22;58875;51.996;4.504;2022-12-29T00:41:49;11.64;83.71
71173;DHT22;58875;51.996;4.504;2022-12-29T00:44:34;11.62;84.30
71173;DHT22;58875;51.996;4.504;2022-12-29T00:46:59;11.51;84.97
71173;DHT22;58875;51.996;4.504;2022-12-29T00:49:28;11.44;85.32
71173;DHT22;58875;51.996;4.504;2022-12-29T00:52:03;11.42;85.67
71173;DHT22;58875;51.996;4.504;2022-12-29T00:54:32;11.34;85.93
71173;DHT22;58875;51.996;4.504;2022-12-29T00:56:58;11.26;86.74
71173;DHT22;58875;51.996;4.504;2022-12-29T00:59:24;11.23;86.94
71173;DHT22;58875;51.996;4.504;2022-12-29T01:01:51;11.27;86.83
71173;DHT22;58875;51.996;4.504;2022-12-29T01:04:18;11.21;86.97
71173;DHT22;58875;51.996;4.504;2022-12-29T01:06:44;11.17;87.13
71173;DHT22;58875;51.996;4.504;2022-12-29T01:09:10;11.17;87.43
71173;DHT22;58875;51.996;4.504;2022-12-29T01:11:55;11.16;88.01
71173;DHT22;58875;51.996;4.504;2022-12-29T01:14:21;11.16;87.75
71173;DHT22;58875;51.996;4.504;2022-12-29T01:16:47;11.21;87.73
71173;DHT22;58875;51.996;4.504;2022-12-29T01:19:15;11.16;87.71
71173;DHT22;58875;51.996;4.504;2022-12-29T01:21:41;11.23;87.39
71173;DHT22;58875;51.996;4.504;2022-12-29T01:24:07;11.21;87.14
71173;DHT22;58875;51.996;4.504;2022-12-29T01:26:33;11.28;87.12
71173;DHT22;58875;51.996;4.504;2022-12-29T01:28:58;11.27;87.03
71173;DHT22;58875;51.996;4.504;2022-12-29T01:31:24;11.23;87.15
71173;DHT22;58875;51.996;4.504;2022-12-29T01:33:49;11.27;87.00
71173;DHT22;58875;51.996;4.504;2022-12-29T01:36:17;11.32;86.88
71173;DHT22;58875;51.996;4.504;2022-12-29T01:38:43;11.28;86.81
71173;DHT22;58875;51.996;4.504;2022-12-29T01:41:12;11.26;86.70
71173;DHT22;58875;51.996;4.504;2022-12-29T01:43:58;11.28;86.44
71173;DHT22;58875;51.996;4.504;2022-12-29T01:46:36;11.26;86.15
71173;DHT22;58875;51.996;4.504;2022-12-29T01:49:18;11.27;85.92
71173;DHT22;58875;51.996;4.504;2022-12-29T01:51:52;11.31;85.76
71173;DHT22;58875;51.996;4.504;2022-12-29T01:54:40;11.24;85.32
71173;DHT22;58875;51.996;4.504;2022-12-29T01:57:12;11.27;84.78
71173;DHT22;58875;51.996;4.504;2022-12-29T01:59:49;11.28;84.79
71173;DHT22;58875;51.996;4.504;2022-12-29T02:02:16;11.27;84.63
71173;DHT22;58875;51.996;4.504;2022-12-29T02:04:43;11.28;84.06
71173;DHT22;58875;51.996;4.504;2022-12-29T02:07:19;11.38;83.61
71173;DHT22;58875;51.996;4.504;2022-12-29T02:09:50;11.39;83.20
71173;DHT22;58875;51.996;4.504;2022-12-29T02:12:19;11.42;82.78
71173;DHT22;58875;51.996;4.504;2022-12-29T02:14:46;11.47;81.85
71173;DHT22;58875;51.996;4.504;2022-12-29T02:20:25;11.51;82.09
71173;DHT22;58875;51.996;4.504;2022-12-29T02:31:39;11.41;82.55
71173;DHT22;58875;51.996;4.504;2022-12-29T02:37:14;11.34;82.27
71173;DHT22;58875;51.996;4.504;2022-12-29T02:42:50;11.42;80.93
71173;DHT22;58875;51.996;4.504;2022-12-29T02:45:24;11.48;80.45
71173;DHT22;58875;51.996;4.504;2022-12-29T02:48:04;11.45;79.80
71173;DHT22;58875;51.996;4.504;2022-12-29T02:51:07;11.38;79.70
71173;DHT22;58875;51.996;4.504;2022-12-29T02:53:36;11.35;79.63
71173;DHT22;58875;51.996;4.504;2022-12-29T02:56:21;11.32;79.71
71173;DHT22;58875;51.996;4.504;2022-12-29T02:58:46;11.27;79.40
71173;DHT22;58875;51.996;4.504;2022-12-29T03:12:58;11.31;79.21
71173;DHT22;58875;51.996;4.504;2022-12-29T03:15:53;11.34;79.47
71173;DHT22;58875;51.996;4.504;2022-12-29T03:21:44;11.30;79.59
71173;DHT22;58875;51.996;4.504;2022-12-29T03:24:32;11.28;79.72
71173;DHT22;58875;51.996;4.504;2022-12-29T03:27:03;11.34;79.49
71173;DHT22;58875;51.996;4.504;2022-12-29T03:29:35;11.31;79.62
71173;DHT22;58875;51.996;4.504;2022-12-29T03:32:04;11.31;79.55
71173;DHT22;58875;51.996;4.504;2022-12-29T03:34:33;11.26;79.61
71173;DHT22;58875;51.996;4.504;2022-12-29T03:37:12;11.27;79.81
71173;DHT22;58875;51.996;4.504;2022-12-29T03:39:38;11.26;79.93
71173;DHT22;58875;51.996;4.504;2022-12-29T03:42:15;11.24;79.61
71173;DHT22;58875;51.996;4.504;2022-12-29T03:44:43;11.24;79.72
71173;DHT22;58875;51.996;4.504;2022-12-29T03:47:11;11.20;79.89
71173;DHT22;58875;51.996;4.504;2022-12-29T03:49:37;11.18;80.15
71173;DHT22;58875;51.996;4.504;2022-12-29T03:52:03;11.16;80.12
71173;DHT22;58875;51.996;4.504;2022-12-29T03:54:29;11.13;80.03
71173;DHT22;58875;51.996;4.504;2022-12-29T03:56:55;11.13;79.90
71173;DHT22;58875;51.996;4.504;2022-12-29T03:59:20;11.08;79.92
71173;DHT22;58875;51.996;4.504;2022-12-29T04:01:46;11.06;79.00
71173;DHT22;58875;51.996;4.504;2022-12-29T04:04:12;11.10;78.25
71173;DHT22;58875;51.996;4.504;2022-12-29T04:06:38;11.06;78.31
71173;DHT22;58875;51.996;4.504;2022-12-29T04:09:04;11.00;78.34
71173;DHT22;58875;51.996;4.504;2022-12-29T04:11:29;11.00;78.03
71173;DHT22;58875;51.996;4.504;2022-12-29T04:13:55;10.97;78.33
71173;DHT22;58875;51.996;4.504;2022-12-29T04:16:20;10.92;78.40
71173;DHT22;58875;51.996;4.504;2022-12-29T04:18:46;10.92;78.83
71173;DHT22;58875;51.996;4.504;2022-12-29T04:21:11;10.83;79.35
71173;DHT22;58875;51.996;4.504;2022-12-29T04:23:38;10.80;79.74
71173;DHT22;58875;51.996;4.504;2022-12-29T04:26:06;10.72;80.05
71173;DHT22;58875;51.996;4.504;2022-12-29T04:28:32;10.62;80.62
71173;DHT22;58875;51.996;4.504;2022-12-29T04:30:58;10.65;80.65
71173;DHT22;58875;51.996;4.504;2022-12-29T04:33:24;10.62;81.04
71173;DHT22;58875;51.996;4.504;2022-12-29T04:35:49;10.55;81.19
71173;DHT22;58875;51.996;4.504;2022-12-29T04:38:15;10.56;81.62
71173;DHT22;58875;51.996;4.504;2022-12-29T04:40:42;10.46;82.18
71173;DHT22;58875;51.996;4.504;2022-12-29T04:43:09;10.48;82.34
71173;DHT22;58875;51.996;4.504;2022-12-29T04:45:35;10.52;82.36
71173;DHT22;58875;51.996;4.504;2022-12-29T04:48:01;10.56;82.19
71173;DHT22;58875;51.996;4.504;2022-12-29T04:50:27;10.56;82.06
71173;DHT22;58875;51.996;4.504;2022-12-29T04:52:52;10.60;81.91
71173;DHT22;58875;51.996;4.504;2022-12-29T04:55:18;10.57;82.19
71173;DHT22;58875;51.996;4.504;2022-12-29T04:57:44;10.59;82.65
71173;DHT22;58875;51.996;4.504;2022-12-29T05:00:10;10.42;83.69
71173;DHT22;58875;51.996;4.504;2022-12-29T05:02:36;10.36;84.62
71173;DHT22;58875;51.996;4.504;2022-12-29T05:05:03;10.26;84.86
71173;DHT22;58875;51.996;4.504;2022-12-29T05:07:28;10.22;85.74
71173;DHT22;58875;51.996;4.504;2022-12-29T05:09:54;10.14;85.92
71173;DHT22;58875;51.996;4.504;2022-12-29T05:12:19;10.09;85.98
71173;DHT22;58875;51.996;4.504;2022-12-29T05:14:44;10.09;86.15
71173;DHT22;58875;51.996;4.504;2022-12-29T05:17:10;10.07;86.24
71173;DHT22;58875;51.996;4.504;2022-12-29T05:19:35;10.18;86.32
71173;DHT22;58875;51.996;4.504;2022-12-29T05:22:01;10.12;86.28
71173;DHT22;58875;51.996;4.504;2022-12-29T05:24:26;10.02;86.01
71173;DHT22;58875;51.996;4.504;2022-12-29T05:26:52;10.04;85.82
71173;DHT22;58875;51.996;4.504;2022-12-29T05:29:17;10.01;85.30
71173;DHT22;58875;51.996;4.504;2022-12-29T05:31:43;10.07;84.87
71173;DHT22;58875;51.996;4.504;2022-12-29T05:34:11;10.14;85.03
71173;DHT22;58875;51.996;4.504;2022-12-29T05:36:37;10.14;84.54
71173;DHT22;58875;51.996;4.504;2022-12-29T05:39:03;10.17;83.99
71173;DHT22;58875;51.996;4.504;2022-12-29T05:41:28;10.19;83.92
71173;DHT22;58875;51.996;4.504;2022-12-29T05:43:54;10.22;84.05
71173;DHT22;58875;51.996;4.504;2022-12-29T05:46:19;10.24;84.15
71173;DHT22;58875;51.996;4.504;2022-12-29T05:48:45;10.19;84.56
71173;DHT22;58875;51.996;4.504;2022-12-29T05:51:11;10.14;84.84
71173;DHT22;58875;51.996;4.504;2022-12-29T05:53:36;9.99;85.27
71173;DHT22;58875;51.996;4.504;2022-12-29T05:56:02;9.91;85.99
71173;DHT22;58875;51.996;4.504;2022-12-29T05:58:28;9.85;86.43
71173;DHT22;58875;51.996;4.504;2022-12-29T06:00:53;9.78;86.76
71173;DHT22;58875;51.996;4.504;2022-12-29T06:03:19;9.76;87.15
71173;DHT22;58875;51.996;4.504;2022-12-29T06:05:45;9.74;86.63
71173;DHT22;58875;51.996;4.504;2022-12-29T06:08:11;9.69;86.33
71173;DHT22;58875;51.996;4.504;2022-12-29T06:10:36;9.76;86.09
71173;DHT22;58875;51.996;4.504;2022-12-29T06:13:02;9.81;85.65
71173;DHT22;58875;51.996;4.504;2022-12-29T06:15:33;9.85;85.44
71173;DHT22;58875;51.996;4.504;2022-12-29T06:17:59;9.87;84.93
71173;DHT22;58875;51.996;4.504;2022-12-29T06:20:24;9.87;84.64
71173;DHT22;58875;51.996;4.504;2022-12-29T06:22:50;9.88;84.16
71173;DHT22;58875;51.996;4.504;2022-12-29T06:25:16;9.91;84.03
71173;DHT22;58875;51.996;4.504;2022-12-29T06:27:42;9.93;83.21
71173;DHT22;58875;51.996;4.504;2022-12-29T06:30:08;9.93;82.29
71173;DHT22;58875;51.996;4.504;2022-12-29T06:32:34;9.97;80.96
71173;DHT22;58875;51.996;4.504;2022-12-29T06:35:00;9.99;81.29
71173;DHT22;58875;51.996;4.504;2022-12-29T06:37:26;9.94;80.84
71173;DHT22;58875;51.996;4.504;2022-12-29T06:39:51;9.97;80.49
71173;DHT22;58875;51.996;4.504;2022-12-29T06:42:17;9.97;80.70
71173;DHT22;58875;51.996;4.504;2022-12-29T06:44:42;9.94;80.63
71173;DHT22;58875;51.996;4.504;2022-12-29T06:47:08;9.90;80.61
71173;DHT22;58875;51.996;4.504;2022-12-29T06:49:34;9.85;80.45
71173;DHT22;58875;51.996;4.504;2022-12-29T06:51:59;9.88;80.47
71173;DHT22;58875;51.996;4.504;2022-12-29T06:54:26;9.80;80.48
71173;DHT22;58875;51.996;4.504;2022-12-29T06:56:51;9.84;80.50
71173;DHT22;58875;51.996;4.504;2022-12-29T06:59:17;9.81;80.38
71173;DHT22;58875;51.996;4.504;2022-12-29T07:01:42;9.84;80.32
71173;DHT22;58875;51.996;4.504;2022-12-29T07:04:08;9.90;80.37
71173;DHT22;58875;51.996;4.504;2022-12-29T07:06:33;9.88;80.20
71173;DHT22;58875;51.996;4.504;2022-12-29T07:08:59;9.97;80.21
71173;DHT22;58875;51.996;4.504;2022-12-29T07:11:25;9.95;80.41
71173;DHT22;58875;51.996;4.504;2022-12-29T07:13:50;9.99;80.55
71173;DHT22;58875;51.996;4.504;2022-12-29T07:16:16;9.94;80.75
71173;DHT22;58875;51.996;4.504;2022-12-29T07:18:42;9.85;81.28
71173;DHT22;58875;51.996;4.504;2022-12-29T07:21:08;9.90;81.39
71173;DHT22;58875;51.996;4.504;2022-12-29T07:23:33;9.94;81.41
71173;DHT22;58875;51.996;4.504;2022-12-29T07:26:04;9.90;81.57
71173;DHT22;58875;51.996;4.504;2022-12-29T07:28:30;9.93;81.64
71173;DHT22;58875;51.996;4.504;2022-12-29T07:30:58;9.98;81.43
71173;DHT22;58875;51.996;4.504;2022-12-29T07:33:23;9.97;80.51
71173;DHT22;58875;51.996;4.504;2022-12-29T07:35:49;10.08;80.44
71173;DHT22;58875;51.996;4.504;2022-12-29T07:38:15;10.18;80.46
71173;DHT22;58875;51.996;4.504;2022-12-29T07:40:42;10.17;79.79
71173;DHT22;58875;51.996;4.504;2022-12-29T07:43:07;10.21;79.65
71173;DHT22;58875;51.996;4.504;2022-12-29T07:45:33;10.24;79.23
71173;DHT22;58875;51.996;4.504;2022-12-29T07:47:58;10.25;79.02
71173;DHT22;58875;51.996;4.504;2022-12-29T07:50:24;10.34;78.60
71173;DHT22;58875;51.996;4.504;2022-12-29T07:52:50;10.34;78.21
71173;DHT22;58875;51.996;4.504;2022-12-29T07:55:16;10.35;77.98
71173;DHT22;58875;51.996;4.504;2022-12-29T07:57:42;10.31;78.27
71173;DHT22;58875;51.996;4.504;2022-12-29T08:00:08;10.35;78.45
71173;DHT22;58875;51.996;4.504;2022-12-29T08:02:35;10.36;78.51
71173;DHT22;58875;51.996;4.504;2022-12-29T08:05:01;10.29;78.41
71173;DHT22;58875;51.996;4.504;2022-12-29T08:07:27;10.29;78.25
71173;DHT22;58875;51.996;4.504;2022-12-29T08:09:52;10.28;79.63
71173;DHT22;58875;51.996;4.504;2022-12-29T08:12:18;10.14;80.76
71173;DHT22;58875;51.996;4.504;2022-12-29T08:14:44;10.07;80.51
71173;DHT22;58875;51.996;4.504;2022-12-29T08:17:12;10.09;80.71
71173;DHT22;58875;51.996;4.504;2022-12-29T08:19:37;10.08;80.43
71173;DHT22;58875;51.996;4.504;2022-12-29T08:22:03;9.99;80.65
71173;DHT22;58875;51.996;4.504;2022-12-29T08:24:29;9.98;81.71
71173;DHT22;58875;51.996;4.504;2022-12-29T08:26:54;10.01;81.94
71173;DHT22;58875;51.996;4.504;2022-12-29T08:29:20;9.97;82.20
71173;DHT22;58875;51.996;4.504;2022-12-29T08:31:47;9.98;82.58
71173;DHT22;58875;51.996;4.504;2022-12-29T08:34:13;9.94;82.40
71173;DHT22;58875;51.996;4.504;2022-12-29T08:36:38;9.88;82.26
71173;DHT22;58875;51.996;4.504;2022-12-29T08:39:04;9.97;82.08
71173;DHT22;58875;51.996;4.504;2022-12-29T08:41:30;9.94;82.53
71173;DHT22;58875;51.996;4.504;2022-12-29T08:43:55;9.84;83.30
71173;DHT22;58875;51.996;4.504;2022-12-29T08:46:21;9.77;84.26
71173;DHT22;58875;51.996;4.504;2022-12-29T08:48:47;9.64;84.84
71173;DHT22;58875;51.996;4.504;2022-12-29T08:51:12;9.60;85.80
71173;DHT22;58875;51.996;4.504;2022-12-29T08:53:38;9.47;86.63
71173;DHT22;58875;51.996;4.504;2022-12-29T08:56:04;9.42;87.46
71173;DHT22;58875;51.996;4.504;2022-12-29T08:58:30;9.44;87.66
71173;DHT22;58875;51.996;4.504;2022-12-29T09:00:57;9.40;87.57
71173;DHT22;58875;51.996;4.504;2022-12-29T09:03:24;9.35;87.43
71173;DHT22;58875;51.996;4.504;2022-12-29T09:05:53;9.37;87.56
71173;DHT22;58875;51.996;4.504;2022-12-29T09:08:20;9.33;87.79
71173;DHT22;58875;51.996;4.504;2022-12-29T09:10:46;9.33;87.94
71173;DHT22;58875;51.996;4.504;2022-12-29T09:13:12;9.32;88.17
71173;DHT22;58875;51.996;4.504;2022-12-29T09:15:39;9.36;88.08
71173;DHT22;58875;51.996;4.504;2022-12-29T09:18:06;9.36;88.27
71173;DHT22;58875;51.996;4.504;2022-12-29T09:20:32;9.42;88.16
71173;DHT22;58875;51.996;4.504;2022-12-29T09:22:58;9.48;87.97
71173;DHT22;58875;51.996;4.504;2022-12-29T09:25:24;9.46;88.11
71173;DHT22;58875;51.996;4.504;2022-12-29T09:27:53;9.57;87.97
71173;DHT22;58875;51.996;4.504;2022-12-29T09:30:20;9.60;87.98
71173;DHT22;58875;51.996;4.504;2022-12-29T09:32:47;9.58;87.91
71173;DHT22;58875;51.996;4.504;2022-12-29T09:35:13;9.58;88.06
71173;DHT22;58875;51.996;4.504;2022-12-29T09:37:39;9.63;88.05
71173;DHT22;58875;51.996;4.504;2022-12-29T09:40:06;9.61;87.99
71173;DHT22;58875;51.996;4.504;2022-12-29T09:45:55;9.76;87.56
71173;DHT22;58875;51.996;4.504;2022-12-29T09:48:32;9.73;87.60
71173;DHT22;58875;51.996;4.504;2022-12-29T09:51:03;9.84;87.44
71173;DHT22;58875;51.996;4.504;2022-12-29T09:53:43;9.85;87.33
71173;DHT22;58875;51.996;4.504;2022-12-29T09:56:21;9.95;87.29
71173;DHT22;58875;51.996;4.504;2022-12-29T10:01:41;9.99;86.89
71173;DHT22;58875;51.996;4.504;2022-12-29T10:04:09;10.05;86.92
71173;DHT22;58875;51.996;4.504;2022-12-29T10:09:44;10.15;86.47
71173;DHT22;58875;51.996;4.504;2022-12-29T10:12:33;10.18;86.31
71173;DHT22;58875;51.996;4.504;2022-12-29T10:20:28;10.15;86.07
71173;DHT22;58875;51.996;4.504;2022-12-29T10:23:27;10.21;86.03
71173;DHT22;58875;51.996;4.504;2022-12-29T10:25:56;10.22;85.78
71173;DHT22;58875;51.996;4.504;2022-12-29T10:28:43;10.32;85.31
71173;DHT22;58875;51.996;4.504;2022-12-29T10:31:17;10.35;85.01
71173;DHT22;58875;51.996;4.504;2022-12-29T10:33:50;10.29;85.13
71173;DHT22;58875;51.996;4.504;2022-12-29T10:36:39;10.29;84.68
71173;DHT22;58875;51.996;4.504;2022-12-29T10:44:46;10.57;83.47
71173;DHT22;58875;51.996;4.504;2022-12-29T10:47:19;10.66;82.56
71173;DHT22;58875;51.996;4.504;2022-12-29T10:49:48;10.77;82.32
71173;DHT22;58875;51.996;4.504;2022-12-29T10:52:17;10.80;81.84
71173;DHT22;58875;51.996;4.504;2022-12-29T10:57:35;10.83;81.43
71173;DHT22;58875;51.996;4.504;2022-12-29T11:00:12;10.83;81.92
71173;DHT22;58875;51.996;4.504;2022-12-29T11:08:00;11.03;81.59
71173;DHT22;58875;51.996;4.504;2022-12-29T11:10:39;10.93;80.69
71173;DHT22;58875;51.996;4.504;2022-12-29T11:13:15;10.79;80.56
71173;DHT22;58875;51.996;4.504;2022-12-29T11:15:46;10.76;80.59
71173;DHT22;58875;51.996;4.504;2022-12-29T11:18:32;10.70;80.75
71173;DHT22;58875;51.996;4.504;2022-12-29T11:21:00;10.53;81.28
71173;DHT22;58875;51.996;4.504;2022-12-29T11:28:41;10.52;81.95
71173;DHT22;58875;51.996;4.504;2022-12-29T11:31:08;10.53;81.77
71173;DHT22;58875;51.996;4.504;2022-12-29T11:33:36;10.60;81.75
71173;DHT22;58875;51.996;4.504;2022-12-29T11:36:08;10.62;81.56
71173;DHT22;58875;51.996;4.504;2022-12-29T11:38:40;10.57;80.36
71173;DHT22;58875;51.996;4.504;2022-12-29T11:41:11;10.59;79.70
71173;DHT22;58875;51.996;4.504;2022-12-29T11:43:41;10.77;78.42
71173;DHT22;58875;51.996;4.504;2022-12-29T11:46:29;10.86;77.78
71173;DHT22;58875;51.996;4.504;2022-12-29T11:48:56;10.83;77.69
71173;DHT22;58875;51.996;4.504;2022-12-29T11:51:41;10.79;78.39
71173;DHT22;58875;51.996;4.504;2022-12-29T11:54:19;10.69;79.27
71173;DHT22;58875;51.996;4.504;2022-12-29T11:56:48;10.70;79.98
71173;DHT22;58875;51.996;4.504;2022-12-29T12:02:37;10.63;80.93
71173;DHT22;58875;51.996;4.504;2022-12-29T12:05:46;10.75;80.88
71173;DHT22;58875;51.996;4.504;2022-12-29T12:08:36;10.76;80.45
71173;DHT22;58875;51.996;4.504;2022-12-29T12:11:21;10.90;80.25
71173;DHT22;58875;51.996;4.504;2022-12-29T12:13:59;10.87;79.98
71173;DHT22;58875;51.996;4.504;2022-12-29T12:16:48;10.81;79.89
71173;DHT22;58875;51.996;4.504;2022-12-29T12:22:04;10.87;78.75
71173;DHT22;58875;51.996;4.504;2022-12-29T12:24:42;10.95;78.69
71173;DHT22;58875;51.996;4.504;2022-12-29T12:27:20;10.87;78.08
71173;DHT22;58875;51.996;4.504;2022-12-29T12:29:52;10.99;77.76
71173;DHT22;58875;51.996;4.504;2022-12-29T12:34:53;11.04;77.19
71173;DHT22;58875;51.996;4.504;2022-12-29T12:37:34;11.01;77.05
71173;DHT22;58875;51.996;4.504;2022-12-29T12:43:20;10.89;77.37
71173;DHT22;58875;51.996;4.504;2022-12-29T12:49:03;10.86;78.90
71173;DHT22;58875;51.996;4.504;2022-12-29T13:00:22;10.84;78.82
71173;DHT22;58875;51.996;4.504;2022-12-29T13:03:13;10.84;79.01
71173;DHT22;58875;51.996;4.504;2022-12-29T13:20:41;10.90;78.99
71173;DHT22;58875;51.996;4.504;2022-12-29T13:28:05;10.89;78.92
71173;DHT22;58875;51.996;4.504;2022-12-29T13:31:00;10.93;78.39
71173;DHT22;58875;51.996;4.504;2022-12-29T13:33:39;10.87;78.50
71173;DHT22;58875;51.996;4.504;2022-12-29T13:36:26;10.81;78.68
71173;DHT22;58875;51.996;4.504;2022-12-29T13:39:07;10.77;79.64
71173;DHT22;58875;51.996;4.504;2022-12-29T13:41:51;10.52;81.86
71173;DHT22;58875;51.996;4.504;2022-12-29T13:44:33;10.26;83.05
71173;DHT22;58875;51.996;4.504;2022-12-29T13:47:11;10.09;84.21
71173;DHT22;58875;51.996;4.504;2022-12-29T13:49:41;9.90;84.96
71173;DHT22;58875;51.996;4.504;2022-12-29T13:52:16;9.71;85.43
71173;DHT22;58875;51.996;4.504;2022-12-29T13:55:20;9.43;85.15
71173;DHT22;58875;51.996;4.504;2022-12-29T14:00:57;9.58;86.26
71173;DHT22;58875;51.996;4.504;2022-12-29T14:03:46;9.66;86.08
71173;DHT22;58875;51.996;4.504;2022-12-29T14:06:30;9.67;85.88
71173;DHT22;58875;51.996;4.504;2022-12-29T14:09:03;9.77;85.82
71173;DHT22;58875;51.996;4.504;2022-12-29T14:11:35;9.77;85.85
71173;DHT22;58875;51.996;4.504;2022-12-29T14:14:24;9.78;85.76
71173;DHT22;58875;51.996;4.504;2022-12-29T14:16:51;9.84;85.45
71173;DHT22;58875;51.996;4.504;2022-12-29T14:19:23;9.83;85.68
71173;DHT22;58875;51.996;4.504;2022-12-29T14:21:59;9.85;84.94
71173;DHT22;58875;51.996;4.504;2022-12-29T14:24:38;9.93;84.97
71173;DHT22;58875;51.996;4.504;2022-12-29T14:35:02;9.98;84.27
71173;DHT22;58875;51.996;4.504;2022-12-29T14:37:46;10.07;84.10
71173;DHT22;58875;51.996;4.504;2022-12-29T14:40:24;10.07;83.91
71173;DHT22;58875;51.996;4.504;2022-12-29T14:42:57;10.08;83.77
71173;DHT22;58875;51.996;4.504;2022-12-29T14:45:28;10.08;83.83
71173;DHT22;58875;51.996;4.504;2022-12-29T14:47:55;10.07;83.51
71173;DHT22;58875;51.996;4.504;2022-12-29T14:53:00;10.09;83.49
71173;DHT22;58875;51.996;4.504;2022-12-29T14:55:45;10.09;83.06
71173;DHT22;58875;51.996;4.504;2022-12-29T15:01:18;10.01;83.01
71173;DHT22;58875;51.996;4.504;2022-12-29T15:03:47;10.07;82.86
71173;DHT22;58875;51.996;4.504;2022-12-29T15:06:17;10.09;82.83
71173;DHT22;58875;51.996;4.504;2022-12-29T15:09:09;10.05;83.14
71173;DHT22;58875;51.996;4.504;2022-12-29T15:14:02;9.98;82.71
71173;DHT22;58875;51.996;4.504;2022-12-29T15:16:33;9.99;82.87
71173;DHT22;58875;51.996;4.504;2022-12-29T15:19:01;9.93;82.85
71173;DHT22;58875;51.996;4.504;2022-12-29T15:21:31;9.91;82.92
71173;DHT22;58875;51.996;4.504;2022-12-29T15:23:57;9.90;82.73
71173;DHT22;58875;51.996;4.504;2022-12-29T15:26:37;9.91;82.82
71173;DHT22;58875;51.996;4.504;2022-12-29T15:29:04;9.88;82.62
71173;DHT22;58875;51.996;4.504;2022-12-29T15:31:29;9.93;82.45
71173;DHT22;58875;51.996;4.504;2022-12-29T15:34:19;9.87;82.22
71173;DHT22;58875;51.996;4.504;2022-12-29T15:36:49;9.80;81.93
71173;DHT22;58875;51.996;4.504;2022-12-29T15:39:34;9.76;82.00
71173;DHT22;58875;51.996;4.504;2022-12-29T15:42:26;9.80;81.98
71173;DHT22;58875;51.996;4.504;2022-12-29T15:44:55;9.80;81.74
71173;DHT22;58875;51.996;4.504;2022-12-29T15:47:25;9.70;81.78
71173;DHT22;58875;51.996;4.504;2022-12-29T15:50:02;9.63;81.79
71173;DHT22;58875;51.996;4.504;2022-12-29T15:52:31;9.53;81.90
71173;DHT22;58875;51.996;4.504;2022-12-29T15:54:59;9.53;82.19
71173;DHT22;58875;51.996;4.504;2022-12-29T15:57:36;9.44;81.69
71173;DHT22;58875;51.996;4.504;2022-12-29T16:00:03;9.46;81.54
71173;DHT22;58875;51.996;4.504;2022-12-29T16:02:29;9.40;81.46
71173;DHT22;58875;51.996;4.504;2022-12-29T16:04:55;9.36;81.43
71173;DHT22;58875;51.996;4.504;2022-12-29T16:07:25;9.40;81.28
71173;DHT22;58875;51.996;4.504;2022-12-29T16:09:59;9.30;81.41
71173;DHT22;58875;51.996;4.504;2022-12-29T16:12:35;9.30;81.09
71173;DHT22;58875;51.996;4.504;2022-12-29T16:15:04;9.26;80.93
71173;DHT22;58875;51.996;4.504;2022-12-29T16:17:44;9.27;80.93
71173;DHT22;58875;51.996;4.504;2022-12-29T16:20:20;9.32;80.70
71173;DHT22;58875;51.996;4.504;2022-12-29T16:22:56;9.32;80.65
71173;DHT22;58875;51.996;4.504;2022-12-29T16:25:26;9.35;80.41
71173;DHT22;58875;51.996;4.504;2022-12-29T16:27:54;9.27;80.63
71173;DHT22;58875;51.996;4.504;2022-12-29T16:30:23;9.29;80.50
71173;DHT22;58875;51.996;4.504;2022-12-29T16:32:53;9.27;80.63
71173;DHT22;58875;51.996;4.504;2022-12-29T16:38:16;9.25;80.46
71173;DHT22;58875;51.996;4.504;2022-12-29T16:43:28;9.20;80.62
71173;DHT22;58875;51.996;4.504;2022-12-29T16:48:29;9.18;80.74
71173;DHT22;58875;51.996;4.504;2022-12-29T16:51:28;9.08;80.87
71173;DHT22;58875;51.996;4.504;2022-12-29T16:53:55;9.12;80.57
71173;DHT22;58875;51.996;4.504;2022-12-29T16:56:24;9.09;80.58
71173;DHT22;58875;51.996;4.504;2022-12-29T16:59:39;8.98;80.75
71173;DHT22;58875;51.996;4.504;2022-12-29T17:02:16;8.95;80.59
71173;DHT22;58875;51.996;4.504;2022-12-29T17:04:43;8.89;80.56
71173;DHT22;58875;51.996;4.504;2022-12-29T17:07:21;8.89;80.49
71173;DHT22;58875;51.996;4.504;2022-12-29T17:09:48;8.98;80.38
71173;DHT22;58875;51.996;4.504;2022-12-29T17:12:18;8.86;80.35
71173;DHT22;58875;51.996;4.504;2022-12-29T17:17:35;8.81;80.13
71173;DHT22;58875;51.996;4.504;2022-12-29T17:20:14;8.81;79.61
71173;DHT22;58875;51.996;4.504;2022-12-29T17:22:40;8.82;79.57
71173;DHT22;58875;51.996;4.504;2022-12-29T17:25:06;8.85;79.51
71173;DHT22;58875;51.996;4.504;2022-12-29T17:27:37;8.84;79.48
71173;DHT22;58875;51.996;4.504;2022-12-29T17:30:15;8.91;79.20
71173;DHT22;58875;51.996;4.504;2022-12-29T17:32:43;8.85;79.54
71173;DHT22;58875;51.996;4.504;2022-12-29T17:35:19;8.86;79.69
71173;DHT22;58875;51.996;4.504;2022-12-29T17:37:45;8.74;79.74
71173;DHT22;58875;51.996;4.504;2022-12-29T17:40:19;8.71;79.93
71173;DHT22;58875;51.996;4.504;2022-12-29T17:42:52;8.67;80.07
71173;DHT22;58875;51.996;4.504;2022-12-29T17:45:32;8.63;80.34
71173;DHT22;58875;51.996;4.504;2022-12-29T17:47:58;8.58;80.66
71173;DHT22;58875;51.996;4.504;2022-12-29T17:50:29;8.60;80.32
71173;DHT22;58875;51.996;4.504;2022-12-29T17:53:01;8.58;80.28
71173;DHT22;58875;51.996;4.504;2022-12-29T17:55:28;8.53;80.47
71173;DHT22;58875;51.996;4.504;2022-12-29T17:57:54;8.57;80.38
71173;DHT22;58875;51.996;4.504;2022-12-29T18:00:31;8.58;80.60
71173;DHT22;58875;51.996;4.504;2022-12-29T18:02:57;8.53;80.55
71173;DHT22;58875;51.996;4.504;2022-12-29T18:05:27;8.55;80.74
71173;DHT22;58875;51.996;4.504;2022-12-29T18:07:56;8.51;80.68
71173;DHT22;58875;51.996;4.504;2022-12-29T18:10:24;8.48;80.97
71173;DHT22;58875;51.996;4.504;2022-12-29T18:12:53;8.55;80.77
71173;DHT22;58875;51.996;4.504;2022-12-29T18:15:22;8.54;80.94
71173;DHT22;58875;51.996;4.504;2022-12-29T18:17:49;8.45;81.08
71173;DHT22;58875;51.996;4.504;2022-12-29T18:20:18;8.50;80.90
71173;DHT22;58875;51.996;4.504;2022-12-29T18:22:44;8.53;80.92